Time;durP1;ratioP1;P1;durP2;ratioP2;P2;SDS_P1;SDS_P2;PMS_P1;PMS_P2;Temp;Humidity;BMP_temperature;BMP_pressure;BME280_temperature;BME280_humidity;BME280_pressure;Samples;Min_cycle;Max_cycle;Signal;HPM_P1;HPM_P2
2024/04/09 00:00:53;;;;;;;5.93;2.97;;;384.20;2201.60;;;;;;5378028;26;19996;-74
2024/04/09 00:03:19;;;;;;;6.43;3.67;;;384.10;2227.20;;;;;;5376495;26;20367;-75
2024/04/09 00:05:45;;;;;;;6.78;2.65;;;384.20;2227.20;;;;;;5378972;26;20004;-74
2024/04/09 00:08:10;;;;;;;5.80;2.38;;;384.20;2201.60;;;;;;5380255;26;20064;-73
2024/04/09 00:10:37;;;;;;;6.55;3.03;;;384.30;2201.60;;;;;;5380131;26;20000;-75
2024/04/09 00:13:06;;;;;;;4.72;2.75;;;384.30;2201.60;;;;;;5381078;26;20000;-75
2024/04/09 00:15:36;;;;;;;8.32;3.50;;;384.20;2227.20;;;;;;5379174;26;20011;-74
2024/04/09 00:18:11;;;;;;;6.72;3.33;;;384.20;2227.20;;;;;;5382257;26;20000;-74
2024/04/09 00:20:39;;;;;;;4.10;2.97;;;384.10;2227.20;;;;;;5383242;26;20015;-71
2024/04/09 00:23:05;;;;;;;6.50;3.40;;;384.10;2252.80;;;;;;5391139;26;20392;-72
2024/04/09 00:25:31;;;;;;;4.88;2.90;;;359.30;2278.40;;;;;;5385328;26;20004;-75
2024/04/09 00:27:59;;;;;;;6.32;3.15;;;384.00;2252.80;;;;;;5376070;26;20008;-74
2024/04/09 00:30:27;;;;;;;6.93;3.17;;;359.30;2278.40;;;;;;5375956;26;20329;-75
2024/04/09 00:32:53;;;;;;;9.57;3.38;;;384.00;2278.40;;;;;;5376701;26;20006;-75
2024/04/09 00:35:26;;;;;;;8.40;3.63;;;384.00;2278.40;;;;;;5384364;26;20006;-73
2024/04/09 00:37:54;;;;;;;5.72;3.00;;;384.00;2304.00;;;;;;5393196;26;20044;-73
2024/04/09 00:40:29;;;;;;;6.22;3.03;;;359.20;2329.60;;;;;;5411798;26;20076;-73
2024/04/09 00:42:57;;;;;;;4.72;2.60;;;359.30;2329.60;;;;;;5407208;26;20035;-72
2024/04/09 00:45:24;;;;;;;6.03;3.15;;;359.30;2329.60;;;;;;5411558;26;20138;-72
2024/04/09 00:47:53;;;;;;;5.90;2.80;;;359.20;2329.60;;;;;;5410983;26;20011;-74
2024/04/09 00:50:20;;;;;;;6.78;2.92;;;359.10;2329.60;;;;;;5412028;26;20000;-75
2024/04/09 00:52:51;;;;;;;7.07;3.08;;;359.10;2329.60;;;;;;5409731;26;20003;-73
2024/04/09 00:55:24;;;;;;;4.80;2.90;;;359.10;2329.60;;;;;;5412025;26;20039;-72
2024/04/09 00:57:52;;;;;;;;;;;359.10;2329.60;;;;;;5410919;26;19999;-73
2024/04/09 01:00:21;;;;;;;4.90;2.22;;;359.20;2329.60;;;;;;5410688;26;19932;-74
2024/04/09 01:02:48;;;;;;;5.72;2.67;;;359.00;2329.60;;;;;;5363980;26;19995;-74
2024/04/09 01:05:15;;;;;;;5.10;2.90;;;359.10;2329.60;;;;;;5410904;26;20032;-74
2024/04/09 01:07:42;;;;;;;4.75;3.08;;;359.20;2329.60;;;;;;5410201;26;20004;-74
2024/04/09 01:10:08;;;;;;;4.82;2.78;;;359.20;2329.60;;;;;;5410987;26;20011;-74
2024/04/09 01:12:34;;;;;;;5.25;3.25;;;359.10;2329.60;;;;;;5411048;26;19999;-77
2024/04/09 01:15:00;;;;;;;3.83;2.60;;;358.90;2329.60;;;;;;5410727;26;20046;-76
2024/04/09 01:17:28;;;;;;;6.03;3.35;;;359.00;2329.60;;;;;;5411395;26;20011;-75
2024/04/09 01:19:54;;;;;;;7.70;3.50;;;358.80;2329.60;;;;;;5409683;26;20027;-76
2024/04/09 01:22:20;;;;;;;7.00;3.45;;;358.70;2329.60;;;;;;5411275;26;20076;-76
2024/04/09 01:24:47;;;;;;;6.00;2.90;;;358.50;2329.60;;;;;;5409622;26;20008;-74
2024/04/09 01:27:14;;;;;;;8.30;3.67;;;358.40;2329.60;;;;;;5409533;26;20178;-75
2024/04/09 01:29:43;;;;;;;12.85;3.45;;;358.40;2329.60;;;;;;5409807;26;19996;-75
2024/04/09 01:32:10;;;;;;;7.95;3.70;;;333.70;2329.60;;;;;;5411116;26;20012;-75
2024/04/09 01:34:36;;;;;;;4.75;3.28;;;333.70;2329.60;;;;;;5406794;26;20465;-75
2024/04/09 01:37:03;;;;;;;6.63;3.25;;;358.50;2329.60;;;;;;5406245;26;20000;-75
2024/04/09 01:39:29;;;;;;;5.40;3.10;;;358.50;2329.60;;;;;;5390879;26;20032;-75
2024/04/09 01:41:56;;;;;;;9.70;3.65;;;358.50;2329.60;;;;;;5405869;26;20010;-76
2024/04/09 01:44:22;;;;;;;4.88;3.08;;;358.50;2329.60;;;;;;5410471;26;20011;-74
2024/04/09 01:46:48;;;;;;;6.97;3.70;;;358.50;2329.60;;;;;;5410946;26;20355;-74
2024/04/09 01:49:20;;;;;;;5.78;3.08;;;358.50;2329.60;;;;;;5409501;26;20014;-74
2024/04/09 01:51:46;;;;;;;6.45;4.50;;;358.40;2329.60;;;;;;5410123;26;20153;-74
2024/04/09 01:54:12;;;;;;;8.85;6.70;;;333.60;2329.60;;;;;;5410521;26;20479;-74
2024/04/09 01:56:38;;;;;;;8.32;4.80;;;333.60;2329.60;;;;;;5409909;26;19996;-74
2024/04/09 01:59:05;;;;;;;6.82;3.72;;;333.60;2329.60;;;;;;5409318;26;20010;-74
2024/04/09 02:01:31;;;;;;;8.98;3.88;;;333.50;2329.60;;;;;;5387054;26;19995;-73
2024/04/09 02:03:57;;;;;;;7.00;3.67;;;333.40;2329.60;;;;;;5409832;26;20093;-73
2024/04/09 02:06:24;;;;;;;4.82;3.22;;;333.40;2329.60;;;;;;5409136;26;19999;-74
2024/04/09 02:08:53;;;;;;;4.95;2.97;;;333.40;2329.60;;;;;;5409075;26;20014;-75
2024/04/09 02:11:22;;;;;;;8.23;3.97;;;333.60;2329.60;;;;;;5410160;26;20363;-75
2024/04/09 02:13:48;;;;;;;4.88;3.22;;;333.40;2329.60;;;;;;5409580;26;20006;-72
2024/04/09 02:16:16;;;;;;;8.45;3.67;;;333.40;2329.60;;;;;;5410271;26;20052;-75
2024/04/09 02:18:42;;;;;;;6.43;3.75;;;333.30;2329.60;;;;;;5409351;26;20003;-73
2024/04/09 02:21:09;;;;;;;10.85;3.78;;;333.20;2329.60;;;;;;5363710;26;20065;-74
2024/04/09 02:23:39;;;;;;;9.07;3.40;;;333.30;2329.60;;;;;;5408809;26;20003;-72
2024/04/09 02:26:05;;;;;;;6.60;3.33;;;333.40;2329.60;;;;;;5400482;26;20002;-73
2024/04/09 02:28:32;;;;;;;5.55;3.30;;;333.40;2329.60;;;;;;5398593;26;19996;-74
2024/04/09 02:30:58;;;;;;;6.10;3.67;;;333.50;2329.60;;;;;;5410741;26;20024;-75
2024/04/09 02:33:24;;;;;;;5.50;3.40;;;333.60;2329.60;;;;;;5408627;26;20014;-76
2024/04/09 02:35:58;;;;;;;5.55;3.53;;;333.40;2329.60;;;;;;5410803;26;19999;-74
2024/04/09 02:38:26;;;;;;;8.02;5.03;;;333.50;2329.60;;;;;;5408155;26;20017;-76
2024/04/09 02:40:51;;;;;;;5.30;3.85;;;333.30;2329.60;;;;;;5410522;26;19996;-72
2024/04/09 02:43:17;;;;;;;7.03;4.53;;;333.30;2329.60;;;;;;5408409;26;20010;-73
2024/04/09 02:45:43;;;;;;;6.10;3.50;;;333.40;2329.60;;;;;;5410070;26;19999;-74
2024/04/09 02:48:09;;;;;;;6.22;4.00;;;333.50;2329.60;;;;;;5408988;26;20014;-73
2024/04/09 02:50:35;;;;;;;5.50;3.50;;;333.60;2329.60;;;;;;5410098;26;20449;-73
2024/04/09 02:53:00;;;;;;;6.20;3.88;;;333.60;2329.60;;;;;;5408424;26;20350;-73
2024/04/09 02:55:26;;;;;;;6.25;3.72;;;333.60;2329.60;;;;;;5409930;26;20003;-73
2024/04/09 02:57:52;;;;;;;10.40;3.63;;;333.60;2329.60;;;;;;5407436;26;20077;-73
2024/04/09 03:00:19;;;;;;;6.88;4.13;;;333.60;2329.60;;;;;;5409903;26;20011;-75
2024/04/09 03:02:52;;;;;;;8.80;4.50;;;333.70;2329.60;;;;;;5407876;26;20085;-73
2024/04/09 03:05:21;;;;;;;6.50;4.38;;;333.70;2329.60;;;;;;5408843;26;20010;-72
2024/04/09 03:07:47;;;;;;;7.78;4.20;;;333.70;2329.60;;;;;;5408502;26;20000;-75
2024/04/09 03:10:13;;;;;;;7.30;4.18;;;333.60;2329.60;;;;;;5409079;26;20000;-73
2024/04/09 03:12:40;;;;;;;8.27;4.15;;;333.60;2329.60;;;;;;5408610;26;20012;-74
2024/04/09 03:15:06;;;;;;;9.50;4.15;;;333.70;2329.60;;;;;;5409759;26;20032;-71
2024/04/09 03:17:32;;;;;;;6.25;4.22;;;333.70;2329.60;;;;;;5407142;26;20011;-72
2024/04/09 03:19:58;;;;;;;9.32;4.15;;;333.70;2329.60;;;;;;5409230;26;20010;-73
2024/04/09 03:22:23;;;;;;;8.40;4.20;;;333.70;2329.60;;;;;;5407512;26;20520;-72
2024/04/09 03:24:49;;;;;;;7.43;4.57;;;333.70;2329.60;;;;;;5408868;26;20090;-75
2024/04/09 03:27:16;;;;;;;8.32;4.43;;;333.70;2329.60;;;;;;5408415;26;20000;-74
2024/04/09 03:29:41;;;;;;;6.38;4.60;;;333.70;2329.60;;;;;;5408980;26;20003;-74
2024/04/09 03:32:07;;;;;;;7.18;4.25;;;333.70;2329.60;;;;;;5409199;26;20433;-73
2024/04/09 03:34:34;;;;;;;8.63;4.75;;;333.70;2329.60;;;;;;5408084;26;20015;-72
2024/04/09 03:37:00;;;;;;;10.13;4.55;;;333.70;2329.60;;;;;;5408269;26;20102;-72
2024/04/09 03:39:26;;;;;;;9.82;4.45;;;333.70;2329.60;;;;;;5406985;26;20338;-71
2024/04/09 03:41:52;;;;;;;5.97;4.35;;;333.60;2329.60;;;;;;5407354;26;19997;-72
2024/04/09 03:44:18;;;;;;;8.55;4.82;;;333.70;2329.60;;;;;;5408423;26;20129;-71
2024/04/09 03:46:43;;;;;;;8.52;4.28;;;333.60;2329.60;;;;;;5407385;26;20000;-72
2024/04/09 03:49:09;;;;;;;9.18;4.95;;;333.60;2329.60;;;;;;5407929;26;20007;-71
2024/04/09 03:51:35;;;;;;;9.73;4.97;;;333.50;2329.60;;;;;;5387585;26;20003;-72
2024/04/09 03:54:01;;;;;;;8.55;4.28;;;333.50;2329.60;;;;;;5411750;26;19999;-72
2024/04/09 03:56:27;;;;;;;7.63;4.90;;;333.60;2329.60;;;;;;5410354;26;20064;-73
2024/04/09 03:58:53;;;;;;;8.27;5.47;;;333.50;2329.60;;;;;;5411303;26;20362;-72
2024/04/09 04:01:19;;;;;;;12.23;5.78;;;333.50;2329.60;;;;;;5412219;26;20000;-75
2024/04/09 04:03:46;;;;;;;11.10;5.22;;;333.40;2329.60;;;;;;5411021;26;20011;-75
2024/04/09 04:06:12;;;;;;;8.52;5.47;;;333.40;2329.60;;;;;;5411587;26;20466;-73
2024/04/09 04:08:40;;;;;;;11.13;4.78;;;333.40;2329.60;;;;;;5410681;26;20011;-73
2024/04/09 04:11:09;;;;;;;10.05;5.18;;;333.40;2329.60;;;;;;5411989;26;19999;-73
2024/04/09 04:13:36;;;;;;;16.95;5.07;;;333.40;2329.60;;;;;;5410509;26;19999;-73
2024/04/09 04:16:04;;;;;;;7.50;4.63;;;333.50;2329.60;;;;;;5412184;26;20000;-75
2024/04/09 04:18:37;;;;;;;12.00;5.75;;;333.60;2329.60;;;;;;5410953;26;20003;-73
2024/04/09 04:21:07;;;;;;;10.13;6.82;;;333.70;2329.60;;;;;;5411387;26;20008;-75
2024/04/09 04:23:33;;;;;;;9.32;6.63;;;333.70;2329.60;;;;;;5411183;26;20018;-73
2024/04/09 04:26:04;;;;;;;9.25;6.18;;;358.40;2329.60;;;;;;5411960;26;20011;-73
2024/04/09 04:28:30;;;;;;;8.02;5.75;;;358.50;2329.60;;;;;;5410748;26;19996;-73
2024/04/09 04:30:57;;;;;;;11.93;6.82;;;358.50;2329.60;;;;;;5409288;26;20337;-73
2024/04/09 04:33:22;;;;;;;10.80;5.32;;;358.60;2329.60;;;;;;5409984;26;20329;-73
2024/04/09 04:35:48;;;;;;;12.88;5.20;;;358.70;2329.60;;;;;;5412263;26;20011;-74
2024/04/09 04:38:14;;;;;;;9.90;5.72;;;358.90;2329.60;;;;;;5410604;26;20326;-74
2024/04/09 04:40:40;;;;;;;13.88;5.47;;;359.00;2329.60;;;;;;5393422;26;19999;-74
2024/04/09 04:43:06;;;;;;;7.43;5.35;;;359.10;2329.60;;;;;;5409820;26;19999;-71
2024/04/09 04:45:31;;;;;;;18.40;5.30;;;359.20;2329.60;;;;;;5411007;26;20110;-72
2024/04/09 04:48:00;;;;;;;6.05;4.60;;;359.20;2329.60;;;;;;5376250;26;20003;-71
2024/04/09 04:50:26;;;;;;;12.77;4.72;;;359.30;2329.60;;;;;;5400505;26;20011;-71
2024/04/09 04:52:52;;;;;;;15.27;5.05;;;384.20;2329.60;;;;;;5409965;26;20054;-71
2024/04/09 04:55:18;;;;;;;7.65;5.68;;;384.30;2329.60;;;;;;5409939;26;20388;-71
2024/04/09 04:57:44;;;;;;;6.85;4.63;;;384.50;2329.60;;;;;;5394569;26;20014;-72
2024/04/09 05:00:10;;;;;;;10.00;5.97;;;384.60;2329.60;;;;;;5399391;26;20007;-72
2024/04/09 05:02:37;;;;;;;9.13;5.43;;;384.60;2329.60;;;;;;5397953;26;20004;-71
2024/04/09 05:05:04;;;;;;;10.27;5.22;;;384.80;2329.60;;;;;;5411798;26;20007;-71
2024/04/09 05:07:31;;;;;;;10.32;6.13;;;409.60;2355.20;;;;;;5411563;26;20007;-71
2024/04/09 05:09:58;;;;;;;21.52;16.83;;;486.40;2252.80;;;;;;5374358;26;20023;-72
2024/04/09 05:12:24;;;;;;;10.98;8.43;;;537.80;2022.40;;;;;;5385041;26;20014;-72
2024/04/09 05:14:50;;;;;;;10.93;8.10;;;564.00;1868.80;;;;;;5411155;26;20011;-71
2024/04/09 05:17:16;;;;;;;10.45;7.53;;;614.60;1766.40;;;;;;5409960;26;20000;-72
2024/04/09 05:19:43;;;;;;;11.23;7.22;;;640.10;1664.00;;;;;;5410934;26;20000;-74
2024/04/09 05:22:11;;;;;;;16.08;8.48;;;665.70;1612.80;;;;;;5409994;26;20319;-71
2024/04/09 05:24:39;;;;;;;12.73;8.45;;;666.00;1612.80;;;;;;5410366;26;20000;-71
2024/04/09 05:27:08;;;;;;;14.88;6.55;;;691.20;1561.60;;;;;;5409202;26;20011;-71
2024/04/09 05:29:34;;;;;;;9.57;7.50;;;665.60;1612.80;;;;;;5410158;26;20000;-75
2024/04/09 05:32:00;;;;;;;16.88;8.70;;;640.10;1638.40;;;;;;5410715;26;20441;-74
2024/04/09 05:34:26;;;;;;;9.48;7.35;;;665.70;1612.80;;;;;;5408393;26;20449;-75
2024/04/09 05:36:51;;;;;;;13.43;7.30;;;666.30;1561.60;;;;;;5410576;26;20000;-78
2024/04/09 05:39:19;;;;;;;15.68;7.60;;;691.90;1484.80;;;;;;5410752;26;20003;-76
2024/04/09 05:41:45;;;;;;;13.05;7.50;;;716.80;1510.40;;;;;;5409504;26;20014;-76
2024/04/09 05:44:11;;;;;;;9.63;6.55;;;691.20;1536.00;;;;;;5410137;26;19999;-73
2024/04/09 05:46:40;;;;;;;12.00;6.22;;;666.00;1561.60;;;;;;5409761;26;20010;-77
2024/04/09 05:49:07;;;;;;;10.60;6.88;;;665.70;1587.20;;;;;;5410005;26;20459;-76
2024/04/09 05:51:34;;;;;;;11.63;7.00;;;666.50;1561.60;;;;;;5410240;26;20000;-75
2024/04/09 05:54:00;;;;;;;10.15;7.13;;;692.10;1510.40;;;;;;5409800;26;20037;-75
2024/04/09 05:56:25;;;;;;;9.00;7.18;;;742.70;1459.20;;;;;;5408318;26;20015;-74
2024/04/09 05:58:52;;;;;;;10.85;7.95;;;768.30;1408.00;;;;;;5409642;26;20437;-75
2024/04/09 06:01:18;;;;;;;11.85;7.47;;;794.20;1382.40;;;;;;5407862;26;20007;-75
2024/04/09 06:03:44;;;;;;;9.68;6.80;;;794.20;1356.80;;;;;;5374305;26;20070;-74
2024/04/09 06:06:10;;;;;;;9.35;7.25;;;794.40;1331.20;;;;;;5406025;26;20000;-74
2024/04/09 06:08:36;;;;;;;11.30;8.40;;;819.60;1331.20;;;;;;5408795;26;20004;-75
2024/04/09 06:11:03;;;;;;;7.97;7.18;;;819.90;1280.00;;;;;;5409006;26;20003;-74
2024/04/09 06:13:29;;;;;;;11.05;7.88;;;819.90;1280.00;;;;;;5408429;26;20015;-75
2024/04/09 06:15:55;;;;;;;8.38;7.47;;;819.60;1305.60;;;;;;5409678;26;20027;-73
2024/04/09 06:18:21;;;;;;;9.70;6.85;;;820.00;1280.00;;;;;;5409291;26;19999;-75
2024/04/09 06:20:47;;;;;;;8.52;6.30;;;819.70;1280.00;;;;;;5410460;26;20000;-75
2024/04/09 06:23:13;;;;;;;10.77;7.03;;;794.20;1331.20;;;;;;5408608;26;20019;-78
2024/04/09 06:25:39;;;;;;;13.88;7.55;;;794.00;1331.20;;;;;;5409769;26;20081;-75
2024/04/09 06:28:06;;;;;;;11.25;6.78;;;794.30;1331.20;;;;;;5408770;26;20067;-73
2024/04/09 06:30:32;;;;;;;10.48;7.18;;;819.40;1305.60;;;;;;5409778;26;20003;-74
2024/04/09 06:32:57;;;;;;;8.18;6.68;;;820.10;1280.00;;;;;;5409137;26;20492;-74
2024/04/09 06:35:23;;;;;;;7.70;6.47;;;845.00;1305.60;;;;;;5410290;26;20013;-73
2024/04/09 06:37:49;;;;;;;8.10;7.28;;;870.90;1228.80;;;;;;5408596;26;19999;-74
2024/04/09 06:40:15;;;;;;;8.30;7.50;;;896.40;1177.60;;;;;;5408868;26;20007;-76
2024/04/09 06:42:41;;;;;;;8.80;7.85;;;922.10;1152.00;;;;;;5408758;26;20494;-75
2024/04/09 06:45:07;;;;;;;11.40;7.88;;;947.60;1126.40;;;;;;5409261;26;20014;-76
2024/04/09 06:47:33;;;;;;;8.25;7.45;;;947.70;1100.80;;;;;;5409310;26;20485;-74
2024/04/09 06:50:04;;;;;;;10.80;6.95;;;972.80;1126.40;;;;;;5409909;26;20011;-77
2024/04/09 06:52:30;;;;;;;9.57;7.88;;;973.20;1075.20;;;;;;5408287;26;20197;-78
2024/04/09 06:54:56;;;;;;;10.23;8.52;;;973.30;1100.80;;;;;;5391875;26;20643;-77
2024/04/09 06:57:22;;;;;;;13.07;8.73;;;998.40;1100.80;;;;;;5401489;26;20008;-76
2024/04/09 06:59:48;;;;;;;9.40;8.20;;;998.60;1100.80;;;;;;5405792;26;20441;-77
2024/04/09 07:02:14;;;;;;;12.10;9.13;;;999.10;1075.20;;;;;;5408792;26;20506;-77
2024/04/09 07:04:40;;;;;;;12.38;8.35;;;999.30;1049.60;;;;;;5409281;26;20049;-77
2024/04/09 07:07:06;;;;;;;9.85;8.82;;;1024.50;1024.00;;;;;;5408733;26;20003;-78
2024/04/09 07:09:31;;;;;;;10.10;9.05;;;1024.60;1024.00;;;;;;5409647;26;20007;-77
2024/04/09 07:11:57;;;;;;;16.70;8.85;;;1049.60;1024.00;;;;;;5408119;26;19996;-76
2024/04/09 07:14:23;;;;;;;11.50;9.20;;;1050.10;998.40;;;;;;5408495;26;20448;-77
2024/04/09 07:16:49;;;;;;;10.55;8.63;;;1050.40;998.40;;;;;;5408863;26;20024;-77
2024/04/09 07:19:15;;;;;;;10.23;9.07;;;1050.30;998.40;;;;;;5408804;26;20010;-77
2024/04/09 07:21:41;;;;;;;11.93;9.63;;;1024.90;998.40;;;;;;5409100;26;20007;-77
2024/04/09 07:24:09;;;;;;;13.68;12.20;;;1049.60;1024.00;;;;;;5410344;26;20027;-78
2024/04/09 07:26:35;;;;;;;16.95;12.45;;;1050.00;998.40;;;;;;5411294;26;20003;-77
2024/04/09 07:29:01;;;;;;;18.55;11.70;;;1024.30;998.40;;;;;;5395946;26;20010;-77
2024/04/09 07:31:27;;;;;;;16.10;12.05;;;1024.00;998.40;;;;;;5411622;26;20064;-77
2024/04/09 07:33:53;;;;;;;17.52;9.48;;;1024.10;1024.00;;;;;;5412086;26;19999;-76
2024/04/09 07:36:20;;;;;;;25.08;11.00;;;998.60;1049.60;;;;;;5412348;26;20010;-77
2024/04/09 07:38:47;;;;;;;17.70;10.23;;;998.50;1049.60;;;;;;5411261;26;19996;-77
2024/04/09 07:41:13;;;;;;;23.52;10.82;;;998.80;1024.00;;;;;;5411815;26;19999;-76
2024/04/09 07:43:39;;;;;;;19.55;11.98;;;1024.20;998.40;;;;;;5411218;26;20014;-76
2024/04/09 07:46:07;;;;;;;22.98;11.07;;;1049.60;1024.00;;;;;;5411804;26;19995;-77
2024/04/09 07:48:33;;;;;;;21.00;10.57;;;1050.40;972.80;;;;;;5411307;26;20053;-76
2024/04/09 07:51:00;;;;;;;19.02;12.55;;;1049.60;998.40;;;;;;5411899;26;20024;-76
2024/04/09 07:53:26;;;;;;;27.67;12.90;;;1049.90;998.40;;;;;;5400248;26;19992;-75
2024/04/09 07:55:53;;;;;;;26.00;13.35;;;1049.70;998.40;;;;;;5399452;26;20546;-76
2024/04/09 07:58:19;;;;;;;14.98;10.88;;;1049.80;998.40;;;;;;5411533;26;20011;-77
2024/04/09 08:00:45;;;;;;;19.38;10.13;;;1024.40;972.80;;;;;;5411020;26;19996;-77
2024/04/09 08:03:11;;;;;;;14.52;9.93;;;1024.50;972.80;;;;;;5411092;26;20519;-77
2024/04/09 08:05:37;;;;;;;11.70;9.45;;;999.10;998.40;;;;;;5409054;26;20462;-76
2024/04/09 08:08:03;;;;;;;14.27;9.90;;;1024.50;972.80;;;;;;5404947;26;20015;-74
2024/04/09 08:10:29;;;;;;;16.08;10.55;;;1049.70;972.80;;;;;;5401472;26;20011;-76
2024/04/09 08:12:57;;;;;;;12.68;9.30;;;1050.30;972.80;;;;;;5395348;26;19996;-75
2024/04/09 08:15:23;;;;;;;16.23;8.63;;;1024.30;972.80;;;;;;5390724;26;20077;-75
2024/04/09 08:17:50;;;;;;;11.73;8.32;;;1049.60;972.80;;;;;;5391367;26;19995;-74
2024/04/09 08:20:19;;;;;;;13.07;9.60;;;1024.60;947.20;;;;;;5408803;26;20010;-76
2024/04/09 08:22:49;;;;;;;15.85;8.57;;;1050.20;947.20;;;;;;5398024;26;20013;-76
2024/04/09 08:25:16;;;;;;;14.48;9.10;;;1050.20;921.60;;;;;;5365905;26;20086;-78
2024/04/09 08:27:42;;;;;;;15.07;10.35;;;1075.40;921.60;;;;;;5411207;26;19999;-77
2024/04/09 08:30:12;;;;;;;11.27;9.20;;;1075.50;921.60;;;;;;5398080;26;20001;-76
2024/04/09 08:32:39;;;;;;;12.35;8.63;;;1075.70;921.60;;;;;;5406858;26;20010;-76
2024/04/09 08:35:05;;;;;;;20.10;13.45;;;1075.20;921.60;;;;;;5409182;26;20014;-77
2024/04/09 08:37:31;;;;;;;13.55;9.65;;;1075.30;947.20;;;;;;5406911;26;20008;-78
2024/04/09 08:39:58;;;;;;;16.52;9.70;;;1049.70;947.20;;;;;;5394211;26;20068;-77
2024/04/09 08:42:27;;;;;;;13.73;9.38;;;1049.60;972.80;;;;;;5411077;26;20069;-76
2024/04/09 08:44:55;;;;;;;18.00;10.05;;;1024.00;972.80;;;;;;5407710;26;20351;-76
2024/04/09 08:47:26;;;;;;;13.35;8.90;;;973.00;1024.00;;;;;;5410652;26;20000;-78
2024/04/09 08:49:56;;;;;;;10.18;7.00;;;922.50;1024.00;;;;;;5411441;26;20003;-76
2024/04/09 08:52:23;;;;;;;12.55;7.65;;;871.10;1075.20;;;;;;5410473;26;20014;-76
2024/04/09 08:54:49;;;;;;;11.98;7.15;;;870.60;1100.80;;;;;;5400636;26;20012;-74
2024/04/09 08:57:15;;;;;;;12.93;6.82;;;845.10;1152.00;;;;;;5405180;26;20011;-78
2024/04/09 08:59:41;;;;;;;15.05;7.50;;;844.80;1152.00;;;;;;5411366;26;20011;-76
2024/04/09 09:02:12;;;;;;;12.55;7.38;;;819.30;1228.80;;;;;;5410341;26;20007;-75
2024/04/09 09:04:39;;;;;;;13.68;7.68;;;794.20;1254.40;;;;;;5411772;26;20433;-75
2024/04/09 09:07:24;;;;;;;14.95;7.93;;;794.00;1280.00;;;;;;5410291;26;20003;-75
2024/04/09 09:09:58;;;;;;;13.60;8.07;;;768.90;1305.60;;;;;;5410552;26;20050;-75
2024/04/09 09:12:24;;;;;;;12.88;7.20;;;768.50;1331.20;;;;;;5409779;26;20014;-76
2024/04/09 09:14:54;;;;;;;14.50;7.30;;;768.50;1331.20;;;;;;5407669;26;20012;-76
2024/04/09 09:17:20;;;;;;;15.20;8.02;;;768.40;1356.80;;;;;;5394157;26;20010;-76
2024/04/09 09:19:59;;;;;;;36.88;17.20;;;768.20;1382.40;;;;;;5379224;26;19999;-75
2024/04/09 09:22:29;;;;;;;115.65;40.35;;;768.20;1408.00;;;;;;5410194;26;20469;-77
2024/04/09 09:24:59;;;;;;;15.68;7.95;;;768.50;1382.40;;;;;;5410707;26;20003;-77
2024/04/09 09:27:29;;;;;;;13.90;7.72;;;768.50;1382.40;;;;;;5408788;26;20073;-76
2024/04/09 09:29:56;;;;;;;16.23;7.50;;;768.20;1382.40;;;;;;5410080;26;20014;-76
2024/04/09 09:32:23;;;;;;;14.13;6.60;;;768.50;1356.80;;;;;;5409267;26;20004;-75
2024/04/09 09:34:56;;;;;;;20.85;7.95;;;768.20;1356.80;;;;;;5411206;26;20012;-74
2024/04/09 09:37:24;;;;;;;16.50;7.18;;;768.40;1382.40;;;;;;5398107;26;20338;-77
2024/04/09 09:39:51;;;;;;;11.30;6.55;;;768.10;1331.20;;;;;;5399067;26;20008;-75
2024/04/09 09:42:17;;;;;;;12.48;6.40;;;768.60;1331.20;;;;;;5398275;26;20014;-79
2024/04/09 09:44:45;;;;;;;9.98;6.95;;;768.40;1356.80;;;;;;5376416;26;20016;-78
2024/04/09 09:47:11;;;;;;;14.13;6.30;;;768.10;1331.20;;;;;;5374661;26;20015;-75
2024/04/09 09:49:37;;;;;;;9.57;5.63;;;768.10;1331.20;;;;;;5391594;26;20543;-76
2024/04/09 09:52:04;;;;;;;10.85;6.60;;;768.50;1305.60;;;;;;5408996;26;20006;-75
2024/04/09 09:54:30;;;;;;;8.35;6.18;;;768.40;1331.20;;;;;;5411343;26;20444;-76
2024/04/09 09:57:04;;;;;;;8.00;5.90;;;768.40;1331.20;;;;;;5408680;26;20031;-77
2024/04/09 09:59:35;;;;;;;9.70;5.93;;;768.60;1305.60;;;;;;5410510;26;19999;-76
2024/04/09 10:02:03;;;;;;;12.77;7.00;;;768.40;1305.60;;;;;;5410129;26;20082;-77
2024/04/09 10:04:29;;;;;;;8.02;5.70;;;768.40;1356.80;;;;;;5409913;26;19995;-75
2024/04/09 10:07:00;;;;;;;9.32;6.10;;;768.40;1356.80;;;;;;5410012;26;20018;-76
2024/04/09 10:09:48;;;;;;;11.57;6.47;;;768.40;1331.20;;;;;;5409576;26;20742;-75
2024/04/09 10:12:24;;;;;;;12.40;6.68;;;768.10;1356.80;;;;;;5370064;26;20168;-76
2024/04/09 10:15:07;;;;;;;7.88;6.00;;;768.10;1356.80;;;;;;5409460;26;20329;-75
2024/04/09 10:18:03;;;;;;;9.80;5.35;;;768.50;1356.80;;;;;;5410140;26;20000;-75
2024/04/09 10:20:35;;;;;;;8.02;5.15;;;768.10;1331.20;;;;;;5375204;26;20012;-75
2024/04/09 10:23:06;;;;;;;8.90;5.35;;;768.40;1331.20;;;;;;5410315;26;20011;-76
2024/04/09 10:25:39;;;;;;;6.93;5.05;;;768.10;1305.60;;;;;;5408706;26;20094;-73
2024/04/09 10:28:10;;;;;;;15.93;5.35;;;743.10;1356.80;;;;;;5409679;26;20015;-75
2024/04/09 10:30:38;;;;;;;13.65;5.85;;;743.30;1331.20;;;;;;5408919;26;20003;-75
2024/04/09 10:33:05;;;;;;;16.05;5.80;;;768.10;1356.80;;;;;;5408922;26;19999;-77
2024/04/09 10:35:32;;;;;;;11.00;5.25;;;768.00;1331.20;;;;;;5409401;26;20508;-76
2024/04/09 10:38:00;;;;;;;12.45;5.20;;;743.10;1331.20;;;;;;5409058;26;20042;-75
2024/04/09 10:40:26;;;;;;;10.57;5.30;;;768.00;1331.20;;;;;;5409291;26;20068;-76
2024/04/09 10:42:52;;;;;;;6.03;5.35;;;743.20;1356.80;;;;;;5408238;26;20003;-74
2024/04/09 10:45:19;;;;;;;7.13;4.80;;;743.20;1356.80;;;;;;5410006;26;20003;-75
2024/04/09 10:47:45;;;;;;;7.35;4.85;;;743.10;1356.80;;;;;;5407933;26;20561;-76
2024/04/09 10:50:15;;;;;;;7.63;4.57;;;742.90;1331.20;;;;;;5409296;26;20015;-77
2024/04/09 10:52:41;;;;;;;7.97;5.57;;;743.10;1331.20;;;;;;5408578;26;20018;-75
2024/04/09 10:55:15;;;;;;;7.85;5.43;;;743.30;1331.20;;;;;;5409675;26;20004;-75
2024/04/09 10:57:42;;;;;;;11.60;5.30;;;743.30;1356.80;;;;;;5407545;26;20340;-75
2024/04/09 11:00:16;;;;;;;7.18;4.20;;;743.30;1356.80;;;;;;5412885;26;20419;-75
2024/04/09 11:02:43;;;;;;;7.20;4.57;;;768.10;1356.80;;;;;;5411667;26;19996;-75
2024/04/09 11:05:10;;;;;;;9.68;4.35;;;743.30;1331.20;;;;;;5412943;26;20011;-76
2024/04/09 11:07:38;;;;;;;5.75;4.55;;;743.30;1331.20;;;;;;5411449;26;20000;-75
2024/04/09 11:10:12;;;;;;;6.88;4.30;;;768.30;1382.40;;;;;;5412106;26;20678;-75
2024/04/09 11:12:44;;;;;;;10.02;4.07;;;768.10;1331.20;;;;;;5411379;26;20004;-76
2024/04/09 11:15:11;;;;;;;7.83;4.57;;;768.00;1331.20;;;;;;5412874;26;19999;-75
2024/04/09 11:17:38;;;;;;;7.00;4.72;;;768.20;1331.20;;;;;;5412041;26;20372;-76
2024/04/09 11:20:11;;;;;;;7.68;4.53;;;768.00;1331.20;;;;;;5412296;26;19999;-76
2024/04/09 11:22:43;;;;;;;8.23;5.18;;;743.30;1331.20;;;;;;5410213;26;20010;-74
2024/04/09 11:25:19;;;;;;;8.83;5.27;;;768.30;1331.20;;;;;;5412659;26;20003;-75
2024/04/09 11:27:51;;;;;;;13.73;5.78;;;743.30;1331.20;;;;;;5411086;26;20003;-76
2024/04/09 11:30:24;;;;;;;7.05;5.60;;;743.20;1356.80;;;;;;5412718;26;20004;-76
2024/04/09 11:32:55;;;;;;;9.80;5.43;;;768.20;1356.80;;;;;;5411180;26;20003;-75
2024/04/09 11:35:25;;;;;;;8.45;5.70;;;743.30;1356.80;;;;;;5412214;26;20017;-75
2024/04/09 11:37:55;;;;;;;12.30;6.10;;;743.30;1356.80;;;;;;5411006;26;20528;-75
2024/04/09 11:40:23;;;;;;;9.52;5.47;;;743.30;1356.80;;;;;;5412273;26;20000;-76
2024/04/09 11:42:50;;;;;;;10.95;6.70;;;743.30;1356.80;;;;;;5411286;26;20493;-75
2024/04/09 11:45:23;;;;;;;10.70;5.38;;;743.30;1356.80;;;;;;5412128;26;20445;-74
2024/04/09 11:47:50;;;;;;;11.93;6.10;;;768.00;1331.20;;;;;;5411991;26;20042;-73
2024/04/09 11:50:16;;;;;;;9.93;5.85;;;743.30;1331.20;;;;;;5411737;26;20003;-74
2024/04/09 11:52:43;;;;;;;9.73;5.28;;;743.30;1356.80;;;;;;5411685;26;20015;-76
2024/04/09 11:55:09;;;;;;;5.07;4.43;;;768.20;1331.20;;;;;;5411236;26;20000;-74
2024/04/09 11:57:35;;;;;;;8.43;5.40;;;768.10;1331.20;;;;;;5411207;26;20081;-74
2024/04/09 12:00:02;;;;;;;8.25;5.18;;;768.40;1331.20;;;;;;5365271;26;20014;-75
2024/04/09 12:02:28;;;;;;;10.80;4.55;;;768.10;1305.60;;;;;;5411392;26;20373;-76
2024/04/09 12:04:54;;;;;;;11.52;5.00;;;768.10;1305.60;;;;;;5410573;26;20014;-74
2024/04/09 12:07:20;;;;;;;16.85;7.20;;;768.20;1305.60;;;;;;5411579;26;20003;-75
2024/04/09 12:09:46;;;;;;;17.20;4.88;;;768.40;1331.20;;;;;;5410167;26;19999;-75
2024/04/09 12:12:12;;;;;;;7.80;5.10;;;768.40;1305.60;;;;;;5411077;26;20013;-75
2024/04/09 12:14:38;;;;;;;8.65;4.80;;;768.30;1305.60;;;;;;5410993;26;20040;-77